Terminal Aerodrome Forecast
Issued by NWS Charleston, WV

Current Version | Previous Version | Graphics & Text | Print | Product List | Glossary On
Versions: 1 2 3 4 5 6 7 8 9 10 11 12 13 14 15 16 17 18 19 20 21 22 23 24 25
053
FTUS41 KRLX 220520
TAFCRW
TAF
KCRW 220520Z 2206/2306 00000KT 5SM BR SKC
     FM220700 00000KT 2SM BR SCT001
     FM220800 00000KT 1/4SM FG VV001
     FM221230 00000KT 2SM BR BKN002
     FM221300 04003KT P6SM FEW050=

USA.gov is the U.S. government's official web portal to all federal, state and local government web resources and services.